createdAt,value
2023-02-07T00:01:37.852Z,-2.44
2023-02-07T00:04:18.535Z,-2.38
2023-02-07T00:06:58.202Z,-2.37
2023-02-07T00:09:50.417Z,-2.33
2023-02-07T00:12:29.921Z,-2.47
2023-02-07T00:15:21.779Z,-2.50
2023-02-07T00:18:02.214Z,-2.47
2023-02-07T00:20:35.638Z,-2.39
2023-02-07T00:23:15.122Z,-2.18
2023-02-07T00:26:04.794Z,-2.37
2023-02-07T00:28:33.315Z,-2.42
2023-02-07T00:31:07.877Z,-2.40
2023-02-07T00:33:38.109Z,-2.27
2023-02-07T00:36:06.363Z,-2.28
2023-02-07T00:38:34.117Z,-2.23
2023-02-07T00:41:03.019Z,-2.58
2023-02-07T00:43:34.612Z,-2.69
2023-02-07T00:46:31.139Z,-2.50
2023-02-07T00:49:10.295Z,-2.53
2023-02-07T00:52:02.122Z,-2.51
2023-02-07T00:54:41.162Z,-2.58
2023-02-07T00:57:31.845Z,-2.63
2023-02-07T01:00:12.003Z,-2.57
2023-02-07T01:02:52.772Z,-2.75
2023-02-07T01:05:45.834Z,-2.43
2023-02-07T01:08:39.157Z,-2.70
2023-02-07T01:11:07.943Z,-2.64
2023-02-07T01:13:37.625Z,-2.52
2023-02-07T01:16:06.243Z,-2.38
2023-02-07T01:18:34.032Z,-2.34
2023-02-07T01:21:02.851Z,-2.26
2023-02-07T01:23:30.143Z,-2.37
2023-02-07T01:25:59.403Z,-2.48
2023-02-07T01:28:28.504Z,-2.49
2023-02-07T01:30:56.041Z,-2.65
2023-02-07T01:33:28.091Z,-2.68
2023-02-07T01:35:56.059Z,-2.64
2023-02-07T01:38:23.319Z,-2.48
2023-02-07T01:40:51.273Z,-2.46
2023-02-07T01:43:20.911Z,-2.62
2023-02-07T01:45:48.897Z,-2.80
2023-02-07T01:48:36.583Z,-2.71
2023-02-07T01:51:08.922Z,-2.77
2023-02-07T01:53:36.685Z,-2.95
2023-02-07T01:56:07.097Z,-3.16
2023-02-07T01:58:35.433Z,-2.94
2023-02-07T02:01:06.564Z,-2.90
2023-02-07T02:03:34.693Z,-2.84
2023-02-07T02:06:02.954Z,-3.01
2023-02-07T02:08:31.302Z,-3.07
2023-02-07T02:11:17.620Z,-3.01
2023-02-07T02:13:46.783Z,-2.76
2023-02-07T02:16:24.803Z,-2.94
2023-02-07T02:19:02.370Z,-2.91
2023-02-07T02:21:48.777Z,-3.02
2023-02-07T02:24:42.060Z,-2.77
2023-02-07T02:27:19.334Z,-2.86
2023-02-07T02:30:07.712Z,-3.01
2023-02-07T02:32:54.949Z,-3.08
2023-02-07T02:35:51.601Z,-3.00
2023-02-07T02:38:55.557Z,-3.12
2023-02-07T02:41:51.021Z,-3.16
2023-02-07T02:44:22.824Z,-3.35
2023-02-07T02:46:50.338Z,-3.33
2023-02-07T02:49:18.050Z,-3.38
2023-02-07T02:51:45.586Z,-3.22
2023-02-07T02:54:33.055Z,-3.07
2023-02-07T02:57:03.941Z,-3.06
2023-02-07T02:59:41.000Z,-3.23
2023-02-07T03:02:24.459Z,-3.21
2023-02-07T03:04:52.523Z,-3.18
2023-02-07T03:07:33.604Z,-3.22
2023-02-07T03:10:12.401Z,-3.27
2023-02-07T03:12:42.129Z,-3.11
2023-02-07T03:15:16.909Z,-3.27
2023-02-07T03:18:00.842Z,-3.28
2023-02-07T03:20:39.333Z,-3.30
2023-02-07T03:23:06.917Z,-3.17
2023-02-07T03:25:36.004Z,-3.07
2023-02-07T03:28:05.063Z,-3.35
2023-02-07T03:30:33.700Z,-3.39
2023-02-07T03:33:07.956Z,-3.47
2023-02-07T03:35:37.272Z,-3.59
2023-02-07T03:38:06.007Z,-3.50
2023-02-07T03:40:35.929Z,-3.50
2023-02-07T03:43:05.136Z,-3.37
2023-02-07T03:45:33.077Z,-3.39
2023-02-07T03:48:00.990Z,-3.25
2023-02-07T03:50:29.378Z,-3.36
2023-02-07T03:53:14.707Z,-3.46
2023-02-07T03:55:56.703Z,-3.36
2023-02-07T03:58:45.926Z,-3.16
2023-02-07T04:01:16.869Z,-3.27
2023-02-07T04:03:44.900Z,-3.30
2023-02-07T04:06:13.021Z,-3.30
2023-02-07T04:08:45.010Z,-3.33
2023-02-07T04:11:13.760Z,-3.27
2023-02-07T04:13:45.895Z,-3.29
2023-02-07T04:16:14.493Z,-3.46
2023-02-07T04:18:43.514Z,-3.26
2023-02-07T04:21:36.145Z,-3.12
2023-02-07T04:24:18.800Z,-3.15
2023-02-07T04:26:59.541Z,-3.38
2023-02-07T04:29:27.046Z,-3.45
2023-02-07T04:31:55.631Z,-3.70
2023-02-07T04:34:26.675Z,-3.42
2023-02-07T04:36:56.940Z,-3.51
2023-02-07T04:39:48.015Z,-3.67
2023-02-07T04:42:36.044Z,-3.67
2023-02-07T04:45:07.354Z,-3.53
2023-02-07T04:50:15.730Z,-3.64
2023-02-07T04:52:45.799Z,-3.37
2023-02-07T04:55:13.853Z,-3.39
2023-02-07T04:57:41.315Z,-3.27
2023-02-07T05:00:10.834Z,-3.26
2023-02-07T05:02:44.496Z,-3.28
2023-02-07T05:05:14.929Z,-3.30
2023-02-07T05:07:49.244Z,-3.30
2023-02-07T05:10:24.342Z,-3.47
2023-02-07T05:12:52.080Z,-3.45
2023-02-07T05:15:23.562Z,-3.60
2023-02-07T05:17:53.309Z,-3.62
2023-02-07T05:20:27.840Z,-3.41
2023-02-07T05:23:10.598Z,-3.48
2023-02-07T05:25:53.836Z,-3.48
2023-02-07T05:28:36.067Z,-3.61
2023-02-07T05:31:51.022Z,-3.53
2023-02-07T05:34:34.792Z,-3.47
2023-02-07T05:37:26.381Z,-3.33
2023-02-07T05:40:13.925Z,-3.50
2023-02-07T05:42:56.286Z,-3.63
2023-02-07T05:45:29.846Z,-3.59
2023-02-07T05:47:59.072Z,-3.49
2023-02-07T05:50:26.916Z,-3.65
2023-02-07T05:56:00.472Z,-3.96
2023-02-07T05:58:42.122Z,-3.56
2023-02-07T06:01:27.247Z,-3.54
2023-02-07T06:04:30.484Z,-3.52
2023-02-07T06:07:00.269Z,-3.67
2023-02-07T06:09:51.018Z,-3.74
2023-02-07T06:12:21.902Z,-3.61
2023-02-07T06:14:55.871Z,-3.61
2023-02-07T06:17:35.883Z,-3.48
2023-02-07T06:20:04.708Z,-3.39
2023-02-07T06:22:34.271Z,-3.33
2023-02-07T06:25:03.711Z,-3.64
2023-02-07T06:27:37.429Z,-3.73
2023-02-07T06:30:07.073Z,-3.65
2023-02-07T06:32:36.529Z,-3.49
2023-02-07T06:35:05.576Z,-3.46
2023-02-07T06:37:38.835Z,-3.49
2023-02-07T06:40:09.849Z,-3.40
2023-02-07T06:42:45.854Z,-3.46
2023-02-07T06:45:21.336Z,-3.43
2023-02-07T06:48:05.956Z,-3.55
2023-02-07T06:51:12.520Z,-3.48
2023-02-07T06:53:53.028Z,-3.60
2023-02-07T06:56:45.078Z,-3.44
2023-02-07T06:59:29.475Z,-3.40
2023-02-07T07:02:25.934Z,-3.31
2023-02-07T07:04:55.014Z,-3.18
2023-02-07T07:07:23.886Z,-3.09
2023-02-07T07:10:00.890Z,-3.17
2023-02-07T07:12:37.047Z,-2.94
2023-02-07T07:15:15.819Z,-2.96
2023-02-07T07:17:48.186Z,-2.81
2023-02-07T07:20:17.094Z,-2.58
2023-02-07T07:22:48.022Z,-2.36
2023-02-07T07:25:16.124Z,-2.41
2023-02-07T07:27:43.967Z,-2.15
2023-02-07T07:30:14.976Z,-2.13
2023-02-07T07:32:43.804Z,-2.13
2023-02-07T07:35:18.786Z,-1.99
2023-02-07T07:37:48.863Z,-1.85
2023-02-07T07:40:22.443Z,-1.99
2023-02-07T07:42:57.483Z,-1.97
2023-02-07T07:45:27.864Z,-1.59
2023-02-07T07:48:05.234Z,-1.70
2023-02-07T07:50:37.949Z,-1.36
2023-02-07T07:53:08.999Z,-1.24
2023-02-07T07:56:00.803Z,-1.38
2023-02-07T07:58:32.517Z,-1.02
2023-02-07T08:01:17.813Z,-0.82
2023-02-07T08:03:52.194Z,-0.54
2023-02-07T08:06:21.043Z,-0.31
2023-02-07T08:08:51.747Z,-0.10
2023-02-07T08:11:32.135Z,-0.40
2023-02-07T08:14:01.033Z,-0.19
2023-02-07T08:17:21.176Z,-0.14
2023-02-07T08:20:36.550Z,0.12
2023-02-07T08:23:11.116Z,-0.01
2023-02-07T08:26:09.047Z,-0.09
2023-02-07T08:29:17.785Z,0.57
2023-02-07T08:32:02.279Z,0.50
2023-02-07T08:35:00.543Z,0.67
2023-02-07T08:37:44.964Z,0.61
2023-02-07T08:40:25.629Z,0.81
2023-02-07T08:43:26.404Z,0.81
2023-02-07T08:46:12.020Z,1.19
2023-02-07T08:48:52.317Z,1.20
2023-02-07T08:51:33.319Z,0.75
2023-02-07T08:57:35.179Z,1.54
2023-02-07T09:00:40.044Z,1.85
2023-02-07T09:03:28.202Z,1.58
2023-02-07T09:06:08.982Z,1.68
2023-02-07T09:08:41.159Z,1.86
2023-02-07T09:11:32.752Z,1.84
2023-02-07T09:14:21.398Z,1.54
2023-02-07T09:17:03.500Z,1.54
2023-02-07T09:19:45.256Z,1.45
2023-02-07T09:22:37.742Z,1.82
2023-02-07T09:25:14.911Z,1.69
2023-02-07T09:28:00.898Z,2.02
2023-02-07T09:30:38.651Z,2.42
2023-02-07T09:33:35.988Z,2.40
2023-02-07T09:36:22.189Z,2.66
2023-02-07T09:38:59.253Z,2.86
2023-02-07T09:42:12.963Z,2.89
2023-02-07T09:45:22.785Z,3.12
2023-02-07T09:48:04.137Z,3.44
2023-02-07T09:50:45.938Z,3.66
2023-02-07T09:56:20.458Z,3.05
2023-02-07T09:59:18.461Z,3.38
2023-02-07T10:01:55.952Z,3.72
2023-02-07T10:04:42.988Z,3.79
2023-02-07T10:07:22.868Z,3.68
2023-02-07T10:10:00.321Z,3.96
2023-02-07T10:12:50.770Z,4.50
2023-02-07T10:15:56.826Z,4.72
2023-02-07T10:18:54.772Z,5.03
2023-02-07T10:21:43.626Z,4.70
2023-02-07T10:24:35.826Z,3.94
2023-02-07T10:27:14.766Z,4.50
2023-02-07T10:30:02.053Z,4.45
2023-02-07T10:32:41.152Z,5.22
2023-02-07T10:35:29.335Z,5.42
2023-02-07T10:38:02.416Z,5.58
2023-02-07T10:40:49.711Z,5.28
2023-02-07T10:43:35.257Z,5.46
2023-02-07T10:46:09.952Z,5.58
2023-02-07T10:48:52.928Z,5.27
2023-02-07T10:51:38.275Z,4.30
2023-02-07T10:54:14.987Z,4.94
2023-02-07T10:56:56.013Z,5.11
2023-02-07T11:00:01.933Z,5.02
2023-02-07T11:02:43.031Z,4.60
2023-02-07T11:05:15.823Z,4.97
2023-02-07T11:08:12.029Z,5.14
2023-02-07T11:10:44.714Z,5.47
2023-02-07T11:13:17.061Z,5.02
2023-02-07T11:15:51.124Z,5.34
2023-02-07T11:18:29.754Z,5.17
2023-02-07T11:21:01.066Z,5.62
2023-02-07T11:23:29.798Z,5.81
2023-02-07T11:28:43.783Z,5.77
2023-02-07T11:31:18.820Z,5.92
2023-02-07T11:33:48.659Z,6.04
2023-02-07T11:36:32.952Z,6.21
2023-02-07T11:39:06.093Z,6.32
2023-02-07T11:41:40.669Z,6.38
2023-02-07T11:44:19.036Z,5.80
2023-02-07T11:46:57.937Z,5.43
2023-02-07T11:49:31.202Z,5.56
2023-02-07T11:52:02.356Z,6.11
2023-02-07T11:57:11.989Z,6.29
2023-02-07T12:00:08.941Z,6.06
2023-02-07T12:03:00.848Z,6.16
2023-02-07T12:05:40.995Z,6.38
2023-02-07T12:08:23.797Z,6.15
2023-02-07T12:11:18.725Z,6.41
2023-02-07T12:19:34.823Z,7.03
2023-02-07T12:22:17.150Z,6.58
2023-02-07T12:24:58.737Z,6.66
2023-02-07T12:27:40.931Z,7.17
2023-02-07T12:30:33.248Z,6.40
2023-02-07T12:33:18.772Z,6.15
2023-02-07T12:36:03.410Z,6.66
2023-02-07T12:41:54.040Z,5.56
2023-02-07T12:44:30.925Z,5.39
2023-02-07T12:47:35.992Z,5.23
2023-02-07T12:50:18.925Z,5.17
2023-02-07T12:53:16.723Z,5.32
2023-02-07T12:55:57.468Z,5.70
2023-02-07T12:58:52.945Z,5.81
2023-02-07T13:01:52.934Z,6.07
2023-02-07T13:04:25.966Z,6.22
2023-02-07T13:07:25.833Z,6.02
2023-02-07T13:10:24.060Z,5.97
2023-02-07T13:13:09.712Z,5.71
2023-02-07T13:16:21.323Z,5.83
2023-02-07T13:19:05.951Z,5.99
2023-02-07T13:21:47.823Z,6.09
2023-02-07T13:24:20.227Z,6.44
2023-02-07T13:26:56.026Z,6.11
2023-02-07T13:29:38.958Z,6.24
2023-02-07T13:32:19.660Z,6.08
2023-02-07T13:34:59.929Z,6.24
2023-02-07T13:38:02.646Z,5.85
2023-02-07T13:40:44.403Z,5.93
2023-02-07T13:43:43.702Z,5.72
2023-02-07T13:46:33.665Z,5.71
2023-02-07T13:49:31.053Z,5.78
2023-02-07T13:52:11.832Z,5.89
2023-02-07T13:54:55.697Z,5.96
2023-02-07T13:57:58.811Z,5.88
2023-02-07T14:00:41.726Z,6.00
2023-02-07T14:03:33.152Z,6.07
2023-02-07T14:06:14.409Z,6.01
2023-02-07T14:08:46.730Z,5.95
2023-02-07T14:15:00.340Z,5.78
2023-02-07T14:17:42.738Z,5.65
2023-02-07T14:20:37.479Z,5.13
2023-02-07T14:23:20.708Z,5.20
2023-02-07T14:25:53.641Z,5.23
2023-02-07T14:34:14.701Z,5.25
2023-02-07T14:36:44.683Z,5.30
2023-02-07T14:39:20.698Z,5.30
2023-02-07T14:42:04.669Z,5.38
2023-02-07T14:44:54.819Z,5.13
2023-02-07T14:47:29.790Z,5.06
2023-02-07T14:50:03.685Z,4.46
2023-02-07T14:52:41.715Z,4.50
2023-02-07T14:58:04.808Z,4.65
2023-02-07T15:03:26.711Z,4.85
2023-02-07T15:08:40.131Z,4.68
2023-02-07T15:11:30.682Z,4.74
2023-02-07T15:14:15.789Z,4.77
2023-02-07T15:19:36.941Z,4.49
2023-02-07T15:22:24.911Z,4.54
2023-02-07T15:24:59.334Z,4.61
2023-02-07T15:27:31.858Z,4.69
2023-02-07T15:30:14.653Z,4.49
2023-02-07T15:32:57.093Z,4.45
2023-02-07T15:35:29.897Z,4.49
2023-02-07T15:38:31.869Z,4.63
2023-02-07T15:41:08.662Z,4.63
2023-02-07T15:44:07.057Z,4.57
2023-02-07T15:46:47.922Z,4.44
2023-02-07T15:49:30.071Z,4.28
2023-02-07T15:52:17.741Z,4.45
2023-02-07T15:57:35.954Z,4.18
2023-02-07T16:00:20.040Z,3.97
2023-02-07T16:03:14.757Z,4.09
2023-02-07T16:05:51.049Z,4.01
2023-02-07T16:08:40.843Z,3.99
2023-02-07T16:11:19.552Z,3.96
2023-02-07T16:14:00.161Z,3.84
2023-02-07T16:16:41.453Z,3.80
2023-02-07T16:19:19.123Z,3.71
2023-02-07T16:22:01.901Z,3.54
2023-02-07T16:24:41.264Z,3.48
2023-02-07T16:27:31.755Z,3.45
2023-02-07T16:30:16.900Z,3.46
2023-02-07T16:32:55.500Z,3.23
2023-02-07T16:35:33.944Z,3.25
2023-02-07T16:38:10.050Z,3.22
2023-02-07T16:43:47.749Z,3.21
2023-02-07T16:46:27.040Z,3.17
2023-02-07T16:49:02.802Z,3.09
2023-02-07T16:51:33.563Z,2.97
2023-02-07T16:56:47.956Z,3.07
2023-02-07T16:59:29.853Z,3.00
2023-02-07T17:02:25.792Z,2.90
2023-02-07T17:04:53.368Z,2.80
2023-02-07T17:07:32.782Z,2.76
2023-02-07T17:10:16.791Z,2.69
2023-02-07T17:12:46.227Z,2.61
2023-02-07T17:15:21.800Z,2.44
2023-02-07T17:18:10.639Z,2.64
2023-02-07T17:20:41.249Z,2.56
2023-02-07T17:23:23.763Z,2.51
2023-02-07T17:25:55.953Z,2.26
2023-02-07T17:28:31.628Z,2.14
2023-02-07T17:33:43.640Z,2.32
2023-02-07T17:36:19.241Z,2.31
2023-02-07T17:38:55.716Z,2.34
2023-02-07T17:41:26.589Z,2.64
2023-02-07T17:44:02.610Z,2.58
2023-02-07T17:46:40.747Z,2.16
2023-02-07T17:49:23.669Z,1.99
2023-02-07T17:54:39.703Z,1.91
2023-02-07T17:59:55.801Z,1.82
2023-02-07T18:02:25.802Z,1.48
2023-02-07T18:04:59.855Z,1.49
2023-02-07T18:07:35.266Z,1.48
2023-02-07T18:10:11.604Z,1.71
2023-02-07T18:12:44.437Z,1.66
2023-02-07T18:17:59.146Z,1.58
2023-02-07T18:20:31.913Z,1.50
2023-02-07T18:23:16.964Z,1.38
2023-02-07T18:25:51.017Z,1.21
2023-02-07T18:39:04.580Z,1.26
2023-02-07T18:41:52.655Z,1.16
2023-02-07T18:44:29.688Z,1.37
2023-02-07T18:49:42.685Z,1.28
2023-02-07T18:52:11.091Z,1.24
2023-02-07T18:54:44.762Z,1.21
2023-02-07T18:57:13.051Z,1.21
2023-02-07T18:59:40.948Z,1.10
2023-02-07T19:02:13.720Z,1.19
2023-02-07T19:04:42.145Z,1.08
2023-02-07T19:07:19.610Z,1.16
2023-02-07T19:09:55.150Z,1.17
2023-02-07T19:12:30.018Z,1.22
2023-02-07T19:15:00.799Z,1.18
2023-02-07T19:17:36.909Z,0.97
2023-02-07T19:20:15.604Z,1.09
2023-02-07T19:22:45.172Z,0.95
2023-02-07T19:25:18.644Z,0.89
2023-02-07T19:27:49.694Z,0.92
2023-02-07T19:35:27.745Z,0.73
2023-02-07T19:38:02.588Z,0.76
2023-02-07T19:40:41.114Z,0.69
2023-02-07T19:43:17.932Z,0.63
2023-02-07T19:45:49.612Z,0.54
2023-02-07T19:48:22.852Z,0.58
2023-02-07T19:51:01.629Z,0.66
2023-02-07T19:53:34.615Z,0.60
2023-02-07T19:56:09.622Z,0.69
2023-02-07T19:58:57.619Z,0.61
2023-02-07T20:01:28.780Z,0.49
2023-02-07T20:06:46.710Z,0.28
2023-02-07T20:09:17.611Z,0.33
2023-02-07T20:11:52.621Z,0.17
2023-02-07T20:19:42.696Z,0.12
2023-02-07T20:22:19.796Z,0.12
2023-02-07T20:24:59.595Z,0.04
2023-02-07T20:27:27.593Z,-0.02
2023-02-07T20:30:02.677Z,0.04
2023-02-07T20:32:38.106Z,-0.26
2023-02-07T20:35:18.582Z,-0.15
2023-02-07T20:37:54.738Z,-0.07
2023-02-07T20:40:41.874Z,-0.11
2023-02-07T20:43:12.705Z,-0.04
2023-02-07T20:45:41.867Z,0.05
2023-02-07T20:48:20.049Z,-0.12
2023-02-07T20:50:57.572Z,-0.28
2023-02-07T20:53:40.920Z,-0.23
2023-02-07T20:56:24.584Z,-0.28
2023-02-07T20:59:00.711Z,-0.03
2023-02-07T21:01:38.676Z,-0.18
2023-02-07T21:04:11.597Z,-0.26
2023-02-07T21:06:42.920Z,-0.16
2023-02-07T21:09:13.529Z,-0.11
2023-02-07T21:11:48.090Z,-0.21
2023-02-07T21:14:24.466Z,-0.15
2023-02-07T21:16:57.833Z,-0.20
2023-02-07T21:22:08.837Z,-0.16
2023-02-07T21:24:38.526Z,-0.19
2023-02-07T21:27:08.704Z,-0.20
2023-02-07T21:29:44.437Z,-0.29
2023-02-07T21:32:12.883Z,-0.50
2023-02-07T21:34:40.684Z,-0.41
2023-02-07T21:37:10.141Z,-0.51
2023-02-07T21:39:49.549Z,-0.54
2023-02-07T21:42:39.564Z,-0.65
2023-02-07T21:45:10.897Z,-0.64
2023-02-07T21:47:50.610Z,-0.82
2023-02-07T21:50:52.389Z,-0.71
2023-02-07T21:53:26.840Z,-0.73
2023-02-07T21:56:25.941Z,-0.64
2023-02-07T21:59:12.389Z,-0.73
2023-02-07T22:02:06.604Z,-0.67
2023-02-07T22:04:54.725Z,-0.75
2023-02-07T22:07:46.843Z,-0.97
2023-02-07T22:10:36.560Z,-0.87
2023-02-07T22:13:26.463Z,-0.84
2023-02-07T22:16:10.794Z,-0.86
2023-02-07T22:18:54.491Z,-1.04
2023-02-07T22:21:38.158Z,-0.95
2023-02-07T22:24:31.792Z,-0.83
2023-02-07T22:27:11.638Z,-1.12
2023-02-07T22:29:49.820Z,-0.91
2023-02-07T22:32:20.392Z,-1.00
2023-02-07T22:34:49.677Z,-0.94
2023-02-07T22:37:18.782Z,-1.03
2023-02-07T22:39:49.189Z,-1.11
2023-02-07T22:42:17.392Z,-1.11
2023-02-07T22:44:46.073Z,-1.25
2023-02-07T22:47:18.548Z,-1.27
2023-02-07T22:49:46.657Z,-1.27
2023-02-07T22:52:20.662Z,-1.32
2023-02-07T22:54:51.887Z,-1.24
2023-02-07T22:57:19.953Z,-1.33
2023-02-07T23:00:09.371Z,-1.23
2023-02-07T23:03:01.002Z,-1.37
2023-02-07T23:05:43.618Z,-1.24
2023-02-07T23:08:38.850Z,-1.33
2023-02-07T23:11:23.986Z,-1.38
2023-02-07T23:14:20.994Z,-1.54
2023-02-07T23:17:06.917Z,-1.40
2023-02-07T23:19:50.851Z,-1.59
2023-02-07T23:22:37.368Z,-1.54
2023-02-07T23:25:29.500Z,-1.76
2023-02-07T23:28:08.675Z,-1.57
2023-02-07T23:30:51.797Z,-1.69
2023-02-07T23:33:43.593Z,-1.63
2023-02-07T23:36:22.964Z,-1.73
2023-02-07T23:39:14.970Z,-1.68
2023-02-07T23:41:55.010Z,-1.73
2023-02-07T23:44:50.411Z,-1.83
2023-02-07T23:47:30.703Z,-1.74
2023-02-07T23:49:59.336Z,-1.61
2023-02-07T23:52:27.005Z,-1.74
2023-02-07T23:54:54.653Z,-1.65
2023-02-07T23:57:23.210Z,-1.74
2023-02-07T23:59:51.554Z,-1.89
